Time;durP1;ratioP1;P1;durP2;ratioP2;P2;SDS_P1;SDS_P2;PMS_P1;PMS_P2;Temp;Humidity;BMP_temperature;BMP_pressure;BME280_temperature;BME280_humidity;BME280_pressure;Samples;Min_cycle;Max_cycle;Signal;HPM_P1;HPM_P2
2023/09/24 00:01:42;;;;;;;13.43;5.40;;;;;;;;;;5065430;28;20229;-72
2023/09/24 00:04:09;;;;;;;6.30;4.95;;;;;;;;;;5084080;28;20225;-71
2023/09/24 00:06:34;;;;;;;9.10;5.30;;;;;;;;;;5094697;28;20593;-72
2023/09/24 00:08:59;;;;;;;11.48;5.78;;;;;;;;;;5100241;28;20271;-72
2023/09/24 00:11:25;;;;;;;9.00;5.60;;;;;;;;;;5068027;28;20205;-72
2023/09/24 00:13:51;;;;;;;11.48;5.82;;;;;;;;;;5077665;28;20199;-72
2023/09/24 00:16:16;;;;;;;9.25;6.13;;;;;;;;;;5096229;28;20285;-72
2023/09/24 00:18:41;;;;;;;8.25;5.40;;;;;;;;;;5098538;28;20215;-72
2023/09/24 00:21:07;;;;;;;10.43;5.57;;;;;;;;;;5073339;28;20188;-72
2023/09/24 00:23:33;;;;;;;10.10;5.47;;;;;;;;;;5067072;28;20208;-72
2023/09/24 00:25:58;;;;;;;9.23;5.75;;;;;;;;;;5074189;28;20316;-72
2023/09/24 00:28:24;;;;;;;9.80;5.97;;;;;;;;;;5093973;28;20192;-72
2023/09/24 00:30:52;;;;;;;7.50;6.20;;;;;;;;;;5091833;28;20195;-72
2023/09/24 00:33:18;;;;;;;13.45;6.13;;;;;;;;;;5097734;28;20218;-72
2023/09/24 00:35:44;;;;;;;10.57;5.95;;;;;;;;;;5090688;28;20303;-72
2023/09/24 00:38:09;;;;;;;11.50;6.53;;;;;;;;;;5091073;28;20749;-72
2023/09/24 00:40:34;;;;;;;11.75;6.05;;;;;;;;;;5061405;28;20195;-71
2023/09/24 00:43:00;;;;;;;9.13;5.18;;;;;;;;;;5084860;28;20208;-71
2023/09/24 00:45:26;;;;;;;12.35;6.90;;;;;;;;;;5105118;28;20190;-71
2023/09/24 00:47:53;;;;;;;11.57;6.00;;;;;;;;;;5089661;28;20673;-72
2023/09/24 00:50:20;;;;;;;12.45;6.40;;;;;;;;;;5095047;28;20271;-72
2023/09/24 00:52:46;;;;;;;12.30;6.22;;;;;;;;;;5090459;28;20195;-72
2023/09/24 00:55:13;;;;;;;9.30;5.95;;;;;;;;;;5091713;28;20180;-72
2023/09/24 00:57:39;;;;;;;9.38;5.78;;;;;;;;;;5091374;28;20243;-72
2023/09/24 01:00:11;;;;;;;10.23;6.10;;;;;;;;;;5091397;28;20203;-72
2023/09/24 01:02:38;;;;;;;12.57;5.68;;;;;;;;;;5073821;28;20235;-72
2023/09/24 01:05:04;;;;;;;12.75;6.85;;;;;;;;;;5090673;28;20665;-73
2023/09/24 01:07:31;;;;;;;11.20;7.00;;;;;;;;;;5096866;28;20183;-72
2023/09/24 01:09:58;;;;;;;11.05;7.10;;;;;;;;;;5071743;28;20184;-72
2023/09/24 01:12:26;;;;;;;13.43;6.40;;;;;;;;;;5090839;28;20241;-72
2023/09/24 01:14:53;;;;;;;9.30;6.15;;;;;;;;;;5096814;28;20187;-72
2023/09/24 01:17:20;;;;;;;16.50;7.93;;;;;;;;;;5072578;28;20334;-72
2023/09/24 01:19:46;;;;;;;14.90;7.35;;;;;;;;;;5056152;28;20282;-72
2023/09/24 01:22:12;;;;;;;16.67;7.82;;;;;;;;;;5089388;28;20638;-72
2023/09/24 01:24:38;;;;;;;14.60;8.63;;;;;;;;;;5088253;28;20606;-72
2023/09/24 01:27:03;;;;;;;13.98;8.70;;;;;;;;;;5065176;28;20212;-72
2023/09/24 01:29:29;;;;;;;12.95;8.45;;;;;;;;;;5093075;28;20253;-72
2023/09/24 01:31:54;;;;;;;13.63;8.20;;;;;;;;;;5091777;28;20192;-72
2023/09/24 01:34:20;;;;;;;14.80;9.25;;;;;;;;;;5083168;28;20266;-72
2023/09/24 01:36:45;;;;;;;13.23;9.02;;;;;;;;;;5087304;28;20204;-73
2023/09/24 01:39:16;;;;;;;17.67;8.52;;;;;;;;;;5063730;28;20192;-73
2023/09/24 01:41:42;;;;;;;14.43;7.97;;;;;;;;;;5103399;28;20179;-73
2023/09/24 01:44:07;;;;;;;14.45;8.93;;;;;;;;;;5079753;28;20215;-72
2023/09/24 01:46:32;;;;;;;19.30;9.73;;;;;;;;;;5083144;28;20646;-72
2023/09/24 01:48:59;;;;;;;14.82;8.88;;;;;;;;;;5070853;28;20194;-72
2023/09/24 01:51:24;;;;;;;20.65;9.60;;;;;;;;;;5079383;28;20250;-73
2023/09/24 01:53:49;;;;;;;18.10;10.23;;;;;;;;;;5101428;28;20642;-72
2023/09/24 01:56:17;;;;;;;23.50;10.35;;;;;;;;;;5071390;28;20516;-72
2023/09/24 01:58:43;;;;;;;19.38;10.82;;;;;;;;;;5081586;28;20200;-72
2023/09/24 02:01:09;;;;;;;17.20;10.15;;;;;;;;;;5072839;28;20601;-72
2023/09/24 02:03:35;;;;;;;21.52;10.27;;;;;;;;;;5069963;28;20326;-72
2023/09/24 02:06:00;;;;;;;16.65;10.50;;;;;;;;;;5078320;28;20579;-72
2023/09/24 02:08:26;;;;;;;15.98;10.32;;;;;;;;;;5067053;28;20291;-72
2023/09/24 02:10:52;;;;;;;15.85;10.00;;;;;;;;;;5083683;28;20188;-72
2023/09/24 02:13:20;;;;;;;25.65;10.88;;;;;;;;;;5069106;28;20601;-72
2023/09/24 02:15:46;;;;;;;22.33;10.88;;;;;;;;;;5083252;28;20281;-71
2023/09/24 02:18:11;;;;;;;20.08;10.82;;;;;;;;;;5070068;28;20311;-72
2023/09/24 02:20:41;;;;;;;22.70;11.43;;;;;;;;;;5073410;28;20439;-72
2023/09/24 02:23:07;;;;;;;23.05;11.55;;;;;;;;;;5068933;28;20651;-72
2023/09/24 02:25:35;;;;;;;20.23;11.13;;;;;;;;;;5069421;28;20276;-73
2023/09/24 02:28:01;;;;;;;18.55;11.50;;;;;;;;;;5083021;28;20241;-72
2023/09/24 02:30:29;;;;;;;19.77;11.70;;;;;;;;;;5071362;28;20189;-72
2023/09/24 02:32:55;;;;;;;20.27;11.23;;;;;;;;;;5050223;28;20279;-72
2023/09/24 02:35:20;;;;;;;19.55;11.18;;;;;;;;;;5078793;28;20674;-72
2023/09/24 02:37:47;;;;;;;23.05;12.57;;;;;;;;;;5067575;28;20243;-72
2023/09/24 02:40:23;;;;;;;22.77;12.93;;;;;;;;;;5068447;28;20719;-72
2023/09/24 02:42:52;;;;;;;22.48;11.73;;;;;;;;;;5068326;28;20185;-72
2023/09/24 02:45:18;;;;;;;20.95;11.35;;;;;;;;;;5078241;28;20267;-72
2023/09/24 02:47:45;;;;;;;20.77;12.05;;;;;;;;;;5078618;28;20275;-72
2023/09/24 02:50:14;;;;;;;16.60;10.35;;;;;;;;;;5082289;28;20214;-72
2023/09/24 02:52:41;;;;;;;22.15;11.45;;;;;;;;;;5068128;28;20192;-72
2023/09/24 02:55:08;;;;;;;20.63;11.95;;;;;;;;;;5072745;28;20669;-72
2023/09/24 02:57:33;;;;;;;21.92;12.57;;;;;;;;;;5065883;28;20208;-72
2023/09/24 02:59:59;;;;;;;21.23;12.18;;;;;;;;;;5067464;28;20188;-73
2023/09/24 03:02:28;;;;;;;24.13;14.43;;;;;;;;;;5069936;28;20248;-72
2023/09/24 03:04:56;;;;;;;25.45;15.60;;;;;;;;;;5065268;28;20548;-73
2023/09/24 03:07:21;;;;;;;28.95;16.95;;;;;;;;;;5061779;28;20670;-72
2023/09/24 03:09:47;;;;;;;28.10;16.92;;;;;;;;;;5058016;28;20192;-72
2023/09/24 03:12:17;;;;;;;28.75;17.67;;;;;;;;;;5083972;28;20627;-72
2023/09/24 03:14:43;;;;;;;28.55;16.75;;;;;;;;;;5066833;28;20193;-73
2023/09/24 03:17:09;;;;;;;27.08;16.65;;;;;;;;;;5081600;28;20280;-72
2023/09/24 03:19:34;;;;;;;25.95;14.77;;;;;;;;;;5075455;28;20276;-72
2023/09/24 03:22:00;;;;;;;23.30;14.88;;;;;;;;;;5057750;28;20197;-72
2023/09/24 03:24:25;;;;;;;30.08;17.05;;;;;;;;;;5067461;28;20694;-71
2023/09/24 03:26:50;;;;;;;24.80;14.85;;;;;;;;;;5068999;28;20227;-72
2023/09/24 03:29:16;;;;;;;26.27;15.43;;;;;;;;;;5052436;28;20200;-71
2023/09/24 03:31:42;;;;;;;25.70;15.32;;;;;;;;;;5076529;28;20348;-71
2023/09/24 03:34:07;;;;;;;25.95;14.50;;;;;;;;;;5065797;28;20191;-71
2023/09/24 03:36:32;;;;;;;23.77;13.50;;;;;;;;;;5048601;28;20640;-71
2023/09/24 03:38:58;;;;;;;26.77;14.85;;;;;;;;;;5060394;28;20227;-72
2023/09/24 03:41:24;;;;;;;26.17;13.63;;;;;;;;;;5066256;28;20188;-72
2023/09/24 03:43:49;;;;;;;23.25;13.40;;;;;;;;;;5068028;28;20647;-70
2023/09/24 03:46:15;;;;;;;30.10;14.65;;;;;;;;;;5059882;28;20205;-72
2023/09/24 03:48:40;;;;;;;25.10;14.63;;;;;;;;;;5057839;28;20189;-71
2023/09/24 03:51:05;;;;;;;25.67;13.27;;;;;;;;;;5057069;28;20189;-72
2023/09/24 03:53:31;;;;;;;31.90;15.27;;;;;;;;;;5072178;28;20196;-71
2023/09/24 03:55:56;;;;;;;29.95;15.05;;;;;;;;;;5070073;28;20273;-72
2023/09/24 03:58:21;;;;;;;27.20;14.70;;;;;;;;;;5082885;28;20210;-72
2023/09/24 04:00:47;;;;;;;31.15;16.25;;;;;;;;;;5071166;28;20734;-72
2023/09/24 04:03:14;;;;;;;31.48;16.92;;;;;;;;;;5087253;28;20231;-72
2023/09/24 04:05:39;;;;;;;34.63;19.60;;;;;;;;;;5081775;28;20195;-72
2023/09/24 04:08:05;;;;;;;34.83;19.80;;;;;;;;;;5066866;28;20189;-71
2023/09/24 04:10:30;;;;;;;24.90;16.45;;;;;;;;;;5079232;28;20200;-72
2023/09/24 04:12:57;;;;;;;34.42;19.50;;;;;;;;;;5047831;28;20194;-72
2023/09/24 04:15:27;;;;;;;30.13;19.88;;;;;;;;;;5083183;28;20774;-72
2023/09/24 04:17:56;;;;;;;34.13;19.88;;;;;;;;;;5082599;28;20229;-71
2023/09/24 04:20:22;;;;;;;30.92;18.55;;;;;;;;;;5072404;28;20207;-72
2023/09/24 04:22:47;;;;;;;31.10;19.88;;;;;;;;;;5072184;28;20635;-72
2023/09/24 04:25:17;;;;;;;27.10;17.30;;;;;;;;;;5086596;28;20211;-72
2023/09/24 04:27:43;;;;;;;26.38;17.02;;;;;;;;;;5081296;28;20659;-73
2023/09/24 04:30:15;;;;;;;33.75;16.30;;;;;;;;;;5094804;28;20269;-72
2023/09/24 04:32:41;;;;;;;26.45;15.32;;;;;;;;;;5077174;28;20446;-71
2023/09/24 04:35:07;;;;;;;23.67;16.02;;;;;;;;;;5099585;28;20199;-71
2023/09/24 04:37:33;;;;;;;29.30;16.02;;;;;;;;;;5054491;28;20286;-70
2023/09/24 04:39:58;;;;;;;26.55;16.02;;;;;;;;;;5089879;28;20222;-72
2023/09/24 04:42:24;;;;;;;33.30;18.80;;;;;;;;;;5081982;28;20276;-72
2023/09/24 04:44:49;;;;;;;33.70;20.35;;;;;;;;;;5086778;28;20207;-72
2023/09/24 04:47:15;;;;;;;34.95;19.45;;;;;;;;;;5076147;28;20185;-72
2023/09/24 04:49:40;;;;;;;33.22;20.15;;;;;;;;;;5072145;28;20269;-72
2023/09/24 04:52:05;;;;;;;34.05;21.55;;;;;;;;;;5085717;28;20203;-72
2023/09/24 04:54:31;;;;;;;37.08;20.48;;;;;;;;;;5065319;28;20697;-72
2023/09/24 04:56:56;;;;;;;35.80;20.73;;;;;;;;;;5069132;28;20208;-72
2023/09/24 04:59:22;;;;;;;31.60;19.30;;;;;;;;;;5087368;28;20569;-72
2023/09/24 05:01:47;;;;;;;34.65;19.85;;;;;;;;;;5088304;28;20255;-72
2023/09/24 05:04:12;;;;;;;34.53;20.27;;;;;;;;;;5083322;28;20283;-72
2023/09/24 05:06:38;;;;;;;32.00;17.77;;;;;;;;;;5091262;28;20227;-72
2023/09/24 05:09:03;;;;;;;30.70;18.90;;;;;;;;;;5089307;28;20194;-72
2023/09/24 05:11:29;;;;;;;30.60;19.40;;;;;;;;;;5068922;28;20263;-71
2023/09/24 05:13:54;;;;;;;28.42;18.05;;;;;;;;;;5080239;28;20176;-72
2023/09/24 05:16:21;;;;;;;35.33;18.77;;;;;;;;;;5089861;28;20245;-71
2023/09/24 05:18:46;;;;;;;31.45;18.63;;;;;;;;;;5067835;28;20278;-72
2023/09/24 05:21:17;;;;;;;26.42;17.13;;;;;;;;;;5075997;28;20643;-71
2023/09/24 05:23:43;;;;;;;31.83;20.15;;;;;;;;;;5069155;28;20653;-72
2023/09/24 05:26:13;;;;;;;35.30;20.95;;;;;;;;;;5087664;28;20653;-72
2023/09/24 05:28:39;;;;;;;33.72;19.27;;;;;;;;;;5067770;28;20200;-72
2023/09/24 05:31:05;;;;;;;34.92;21.13;;;;;;;;;;5076641;28;20203;-71
2023/09/24 05:33:31;;;;;;;36.30;20.10;;;;;;;;;;5072472;28;20486;-72
2023/09/24 05:35:56;;;;;;;41.38;20.23;;;;;;;;;;5094872;28;20191;-72
2023/09/24 05:38:21;;;;;;;35.60;19.08;;;;;;;;;;5062012;28;20632;-72
2023/09/24 05:40:47;;;;;;;28.77;18.67;;;;;;;;;;5060049;28;20180;-72
2023/09/24 05:43:12;;;;;;;31.40;18.90;;;;;;;;;;5081180;28;20242;-72
2023/09/24 05:46:01;;;;;;;30.40;18.90;;;;;;;;;;5085323;28;20180;-72
2023/09/24 05:48:26;;;;;;;30.65;18.63;;;;;;;;;;5085880;28;20549;-72
2023/09/24 05:50:52;;;;;;;34.00;21.50;;;;;;;;;;5088888;28;20188;-72
2023/09/24 05:53:17;;;;;;;35.38;19.83;;;;;;;;;;5084931;28;20587;-72
2023/09/24 05:55:54;;;;;;;43.88;22.88;;;;;;;;;;5068457;28;20238;-72
2023/09/24 05:58:20;;;;;;;36.88;20.65;;;;;;;;;;5063660;28;20336;-70
2023/09/24 06:00:46;;;;;;;44.58;22.58;;;;;;;;;;5077609;28;20500;-70
2023/09/24 06:03:13;;;;;;;34.40;20.63;;;;;;;;;;5088516;28;20239;-71
2023/09/24 06:05:39;;;;;;;33.63;19.85;;;;;;;;;;5100141;28;20211;-71
2023/09/24 06:08:05;;;;;;;33.50;20.25;;;;;;;;;;5101010;28;20651;-70
2023/09/24 06:10:31;;;;;;;35.47;22.08;;;;;;;;;;5083581;28;20184;-71
2023/09/24 06:12:57;;;;;;;38.10;23.48;;;;;;;;;;5080885;28;20186;-70
2023/09/24 06:15:22;;;;;;;38.33;22.65;;;;;;;;;;5067625;28;20196;-70
2023/09/24 06:17:51;;;;;;;40.13;24.48;;;;;;;;;;5084077;28;20282;-71
2023/09/24 06:20:17;;;;;;;40.63;24.92;;;;;;;;;;5093765;28;20481;-71
2023/09/24 06:22:45;;;;;;;37.53;24.35;;;;;;;;;;5088170;28;20191;-71
2023/09/24 06:25:12;;;;;;;40.50;23.48;;;;;;;;;;5073992;28;20177;-71
2023/09/24 06:27:40;;;;;;;33.47;21.83;;;;;;;;;;5083592;28;20180;-71
2023/09/24 06:30:07;;;;;;;43.20;25.00;;;;;;;;;;5085395;28;20223;-71
2023/09/24 06:32:33;;;;;;;39.70;25.55;;;;;;;;;;5090563;28;20211;-71
2023/09/24 06:34:59;;;;;;;38.40;24.30;;;;;;;;;;5089087;28;20274;-70
2023/09/24 06:37:24;;;;;;;33.20;20.00;;;;;;;;;;5078166;28;20213;-70
2023/09/24 06:39:49;;;;;;;36.38;22.08;;;;;;;;;;5095201;28;20199;-72
2023/09/24 06:42:15;;;;;;;29.63;20.73;;;;;;;;;;5063461;28;20187;-71
2023/09/24 06:44:40;;;;;;;34.97;23.05;;;;;;;;;;5084723;28;20188;-71
2023/09/24 06:47:06;;;;;;;34.80;22.63;;;;;;;;;;5085635;28;20553;-68
2023/09/24 06:49:31;;;;;;;33.80;21.92;;;;;;;;;;5090664;28;20197;-71
2023/09/24 06:51:56;;;;;;;33.85;21.58;;;;;;;;;;5085164;28;20202;-71
2023/09/24 06:54:22;;;;;;;32.85;21.63;;;;;;;;;;5081693;28;20195;-70
2023/09/24 06:56:47;;;;;;;32.38;21.35;;;;;;;;;;5072172;28;20215;-70
2023/09/24 06:59:12;;;;;;;29.98;18.98;;;;;;;;;;5085920;28;20195;-70
2023/09/24 07:01:38;;;;;;;34.25;22.25;;;;;;;;;;5103863;28;20227;-68
2023/09/24 07:04:05;;;;;;;33.50;21.33;;;;;;;;;;5083784;28;20213;-69
2023/09/24 07:06:31;;;;;;;31.52;19.65;;;;;;;;;;5068023;28;20192;-71
2023/09/24 07:08:58;;;;;;;27.08;19.17;;;;;;;;;;5080286;28;20286;-70
2023/09/24 07:11:31;;;;;;;29.25;19.27;;;;;;;;;;5080628;28;20180;-70
2023/09/24 07:13:56;;;;;;;24.13;16.77;;;;;;;;;;5075973;28;20669;-70
2023/09/24 07:16:23;;;;;;;25.67;17.13;;;;;;;;;;5097381;28;20195;-69
2023/09/24 07:18:52;;;;;;;26.73;16.70;;;;;;;;;;5069870;28;20187;-70
2023/09/24 07:21:19;;;;;;;24.38;17.33;;;;;;;;;;5109068;28;20278;-69
2023/09/24 07:23:47;;;;;;;22.63;17.38;;;;;;;;;;5108600;28;20183;-69
2023/09/24 07:26:13;;;;;;;23.20;15.88;;;;;;;;;;5091771;28;20176;-70
2023/09/24 07:28:38;;;;;;;21.77;14.27;;;;;;;;;;5087301;28;20692;-68
2023/09/24 07:31:11;;;;;;;24.95;14.73;;;;;;;;;;5091149;28;20275;-69
2023/09/24 07:33:36;;;;;;;25.98;15.30;;;;;;;;;;5086480;28;20199;-70
2023/09/24 07:36:01;;;;;;;20.23;13.55;;;;;;;;;;5056360;28;20180;-69
2023/09/24 07:38:27;;;;;;;17.92;12.98;;;;;;;;;;5088872;28;20290;-70
2023/09/24 07:40:52;;;;;;;18.92;12.20;;;;;;;;;;5085890;28;20191;-70
2023/09/24 07:43:18;;;;;;;17.48;12.05;;;;;;;;;;5075451;28;20199;-68
2023/09/24 07:45:43;;;;;;;20.98;12.05;;;;;;;;;;5084350;28;21477;-68
2023/09/24 07:48:13;;;;;;;17.08;11.80;;;;;;;;;;5090099;28;20192;-70
2023/09/24 07:50:39;;;;;;;15.57;11.60;;;;;;;;;;5075523;28;20855;-70
2023/09/24 07:53:05;;;;;;;17.48;12.02;;;;;;;;;;5086867;28;20220;-69
2023/09/24 07:55:31;;;;;;;16.35;11.45;;;;;;;;;;5074350;28;20185;-69
2023/09/24 07:57:56;;;;;;;19.42;10.45;;;;;;;;;;5077780;28;20224;-69
2023/09/24 08:00:22;;;;;;;13.45;9.52;;;;;;;;;;5074709;28;20199;-70
2023/09/24 08:02:47;;;;;;;16.30;9.77;;;;;;;;;;5093771;28;20757;-68
2023/09/24 08:05:13;;;;;;;12.00;9.23;;;;;;;;;;5085802;28;20187;-71
2023/09/24 08:07:39;;;;;;;15.02;10.13;;;;;;;;;;5086289;28;20206;-68
2023/09/24 08:10:05;;;;;;;14.30;9.57;;;;;;;;;;5076058;28;20562;-70
2023/09/24 08:12:30;;;;;;;13.93;9.48;;;;;;;;;;5072952;28;20237;-69
2023/09/24 08:14:55;;;;;;;13.40;8.43;;;;;;;;;;5092745;28;20719;-70
2023/09/24 08:17:21;;;;;;;14.40;8.63;;;;;;;;;;5082416;28;20204;-69
2023/09/24 08:19:46;;;;;;;13.35;8.30;;;;;;;;;;5093194;28;20194;-68
2023/09/24 08:22:11;;;;;;;12.13;7.45;;;;;;;;;;5082574;28;20200;-69
2023/09/24 08:24:37;;;;;;;10.23;7.45;;;;;;;;;;5098005;28;20638;-70
2023/09/24 08:27:02;;;;;;;12.02;7.10;;;;;;;;;;5088128;28;20211;-71
2023/09/24 08:29:28;;;;;;;11.98;6.85;;;;;;;;;;5082663;28;20594;-69
2023/09/24 08:31:54;;;;;;;11.07;6.47;;;;;;;;;;5084512;28;20290;-68
2023/09/24 08:34:19;;;;;;;11.18;6.22;;;;;;;;;;5081078;28;20185;-69
2023/09/24 08:36:44;;;;;;;11.15;5.85;;;;;;;;;;5083111;28;20226;-69
2023/09/24 08:39:10;;;;;;;10.02;5.82;;;;;;;;;;5087290;28;20267;-70
2023/09/24 08:41:42;;;;;;;8.75;6.22;;;;;;;;;;5083818;28;20184;-70
2023/09/24 08:44:13;;;;;;;9.63;5.28;;;;;;;;;;5089654;28;20192;-70
2023/09/24 08:46:39;;;;;;;9.07;5.07;;;;;;;;;;5092250;28;20196;-69
2023/09/24 08:49:05;;;;;;;7.97;4.88;;;;;;;;;;5090272;28;20271;-69
2023/09/24 08:51:35;;;;;;;7.85;4.85;;;;;;;;;;5093261;28;20205;-70
2023/09/24 08:54:03;;;;;;;9.27;5.00;;;;;;;;;;5090275;28;20239;-69
2023/09/24 08:56:28;;;;;;;8.02;4.47;;;;;;;;;;5075568;28;20188;-70
2023/09/24 08:58:53;;;;;;;7.05;4.82;;;;;;;;;;5090469;28;20219;-70
2023/09/24 09:01:20;;;;;;;7.40;3.60;;;;;;;;;;5082843;28;20196;-69
2023/09/24 09:03:46;;;;;;;7.82;3.63;;;;;;;;;;5104865;28;20239;-70
2023/09/24 09:06:29;;;;;;;6.50;3.70;;;;;;;;;;5083450;28;20188;-70
2023/09/24 09:08:55;;;;;;;7.97;3.40;;;;;;;;;;5091475;28;20184;-69
2023/09/24 09:11:21;;;;;;;5.82;3.40;;;;;;;;;;5104456;28;20198;-70
2023/09/24 09:13:49;;;;;;;5.97;2.97;;;;;;;;;;5101112;28;20192;-69
2023/09/24 09:16:16;;;;;;;8.50;2.95;;;;;;;;;;5099121;28;20668;-68
2023/09/24 09:18:42;;;;;;;5.38;2.78;;;;;;;;;;5111164;28;20229;-69
2023/09/24 09:21:08;;;;;;;8.25;2.63;;;;;;;;;;5090587;28;20634;-68
2023/09/24 09:23:36;;;;;;;6.70;2.78;;;;;;;;;;5090953;28;20188;-67
2023/09/24 09:26:02;;;;;;;7.05;3.22;;;;;;;;;;5075556;28;20183;-70
2023/09/24 09:28:30;;;;;;;5.97;2.58;;;;;;;;;;5101010;28;20676;-69
2023/09/24 09:31:10;;;;;;;6.05;2.47;;;;;;;;;;5107208;28;20274;-68
2023/09/24 09:33:41;;;;;;;9.05;2.85;;;;;;;;;;5084079;28;20192;-70
2023/09/24 09:36:24;;;;;;;5.40;3.15;;;;;;;;;;5092483;28;20175;-69
2023/09/24 09:38:53;;;;;;;5.80;2.70;;;;;;;;;;5099122;28;20196;-68
2023/09/24 09:41:20;;;;;;;5.43;2.20;;;;;;;;;;5093816;28;20278;-68
2023/09/24 09:43:47;;;;;;;6.03;2.50;;;;;;;;;;5091163;28;20245;-70
2023/09/24 09:46:17;;;;;;;7.00;2.25;;;;;;;;;;5090369;28;20184;-70
2023/09/24 09:48:55;;;;;;;5.38;2.28;;;;;;;;;;5099284;28;20303;-68
2023/09/24 09:51:21;;;;;;;8.02;2.03;;;;;;;;;;5093987;28;20529;-72
2023/09/24 09:53:47;;;;;;;6.00;1.92;;;;;;;;;;5095307;28;20184;-69
2023/09/24 09:56:14;;;;;;;5.18;1.85;;;;;;;;;;5088500;28;20245;-69
2023/09/24 09:58:42;;;;;;;4.95;1.73;;;;;;;;;;5090112;28;20557;-72
2023/09/24 10:01:07;;;;;;;4.97;1.88;;;;;;;;;;5084268;28;20207;-69
2023/09/24 10:03:39;;;;;;;4.75;1.65;;;;;;;;;;5094375;28;20229;-70
2023/09/24 10:06:07;;;;;;;8.30;1.90;;;;;;;;;;5098093;28;20184;-71
2023/09/24 10:08:39;;;;;;;7.25;1.60;;;;;;;;;;5090033;28;20184;-71
2023/09/24 10:11:05;;;;;;;4.18;1.88;;;;;;;;;;5088313;28;20669;-71
2023/09/24 10:13:48;;;;;;;6.40;1.90;;;;;;;;;;5088975;28;20253;-70
2023/09/24 10:16:26;;;;;;;7.28;1.67;;;;;;;;;;5059452;28;20203;-71
2023/09/24 10:19:13;;;;;;;4.78;1.63;;;;;;;;;;5069403;28;20199;-72
2023/09/24 10:21:43;;;;;;;5.00;1.50;;;;;;;;;;5051739;28;20197;-68
2023/09/24 10:24:14;;;;;;;4.68;1.80;;;;;;;;;;5085758;28;20227;-70
2023/09/24 10:27:01;;;;;;;8.23;1.67;;;;;;;;;;5089712;28;20557;-71
2023/09/24 10:29:44;;;;;;;5.70;1.65;;;;;;;;;;5076542;28;20286;-69
2023/09/24 10:32:17;;;;;;;4.65;1.80;;;;;;;;;;5089626;28;20206;-69
2023/09/24 10:34:52;;;;;;;4.85;1.42;;;;;;;;;;5089266;28;20194;-71
2023/09/24 10:37:28;;;;;;;7.20;1.40;;;;;;;;;;5089269;28;20219;-71
2023/09/24 10:40:02;;;;;;;5.72;1.48;;;;;;;;;;5070804;28;20262;-69
2023/09/24 10:42:30;;;;;;;5.15;1.52;;;;;;;;;;5057081;28;20214;-70
2023/09/24 10:45:08;;;;;;;6.20;1.63;;;;;;;;;;5067786;28;20186;-70
2023/09/24 10:47:38;;;;;;;9.18;1.60;;;;;;;;;;5070770;28;20237;-69
2023/09/24 10:50:05;;;;;;;4.35;1.30;;;;;;;;;;5070710;28;20226;-70
2023/09/24 10:53:00;;;;;;;6.85;1.45;;;;;;;;;;5059108;28;20185;-69
2023/09/24 10:55:33;;;;;;;5.63;1.13;;;;;;;;;;5068353;28;20232;-70
2023/09/24 10:58:19;;;;;;;6.65;1.88;;;;;;;;;;5082690;28;20635;-70
2023/09/24 11:00:50;;;;;;;2.45;1.30;;;;;;;;;;5077844;28;20227;-71
2023/09/24 11:03:15;;;;;;;4.88;1.40;;;;;;;;;;5064927;28;20334;-71
2023/09/24 11:05:42;;;;;;;3.70;1.20;;;;;;;;;;5069373;28;20589;-71
2023/09/24 11:08:08;;;;;;;3.03;1.23;;;;;;;;;;5084876;28;20500;-70
2023/09/24 11:10:34;;;;;;;4.20;1.10;;;;;;;;;;5068443;28;20215;-69
2023/09/24 11:13:02;;;;;;;4.55;1.30;;;;;;;;;;5085049;28;20270;-70
2023/09/24 11:15:38;;;;;;;2.53;1.30;;;;;;;;;;5085880;28;20183;-70
2023/09/24 11:18:04;;;;;;;4.00;1.58;;;;;;;;;;5105719;28;20210;-71
2023/09/24 11:20:34;;;;;;;3.15;1.27;;;;;;;;;;5084626;28;20256;-70
2023/09/24 11:23:11;;;;;;;2.65;1.10;;;;;;;;;;5103874;28;20298;-70
2023/09/24 11:25:39;;;;;;;5.90;1.38;;;;;;;;;;5076729;28;20188;-71
2023/09/24 11:28:05;;;;;;;3.70;1.30;;;;;;;;;;5078007;28;20185;-71
2023/09/24 11:30:44;;;;;;;3.08;1.13;;;;;;;;;;5094258;28;20218;-69
2023/09/24 11:33:20;;;;;;;6.88;1.63;;;;;;;;;;5057788;28;20329;-72
2023/09/24 11:35:46;;;;;;;6.10;1.35;;;;;;;;;;5088021;28;20662;-71
2023/09/24 11:38:12;;;;;;;4.35;1.30;;;;;;;;;;5094253;28;20216;-70
2023/09/24 11:40:40;;;;;;;2.80;1.10;;;;;;;;;;5091469;28;20595;-70
2023/09/24 11:43:13;;;;;;;5.05;1.23;;;;;;;;;;5088507;28;20244;-69
2023/09/24 11:45:46;;;;;;;6.30;1.63;;;;;;;;;;5062778;28;20318;-70
2023/09/24 11:48:19;;;;;;;6.10;1.40;;;;;;;;;;5088615;28;20180;-70
2023/09/24 11:50:47;;;;;;;3.05;1.17;;;;;;;;;;5089853;28;20744;-69
2023/09/24 11:53:13;;;;;;;5.00;1.25;;;;;;;;;;5102054;28;20259;-70
2023/09/24 11:55:40;;;;;;;5.78;1.33;;;;;;;;;;5078194;28;20188;-70
2023/09/24 11:58:06;;;;;;;3.80;1.50;;;;;;;;;;5091720;28;20219;-71
2023/09/24 12:00:34;;;;;;;4.38;1.63;;;;;;;;;;5091194;28;20196;-69
2023/09/24 12:03:00;;;;;;;5.68;1.67;;;;;;;;;;5088356;28;20227;-71
2023/09/24 12:05:33;;;;;;;4.68;1.50;;;;;;;;;;5074250;28;20211;-68
2023/09/24 12:08:00;;;;;;;4.28;1.13;;;;;;;;;;5084415;28;20192;-70
2023/09/24 12:10:25;;;;;;;3.88;1.50;;;;;;;;;;5086924;28;20224;-69
2023/09/24 12:12:51;;;;;;;4.07;1.30;;;;;;;;;;5084622;28;20204;-72
2023/09/24 12:15:18;;;;;;;5.88;1.27;;;;;;;;;;5106115;28;20221;-68
2023/09/24 12:17:44;;;;;;;4.88;1.25;;;;;;;;;;5067473;28;20511;-70
2023/09/24 12:20:11;;;;;;;3.90;1.15;;;;;;;;;;5075979;28;20188;-69
2023/09/24 12:22:40;;;;;;;2.90;1.20;;;;;;;;;;5091869;28;20191;-71
2023/09/24 12:25:06;;;;;;;5.40;1.35;;;;;;;;;;5086072;28;20491;-69
2023/09/24 12:27:32;;;;;;;3.22;1.25;;;;;;;;;;5080482;28;20192;-69
2023/09/24 12:29:57;;;;;;;2.97;1.23;;;;;;;;;;5091339;28;20568;-73
2023/09/24 12:32:23;;;;;;;6.13;2.20;;;;;;;;;;5072849;28;20199;-69
2023/09/24 12:34:49;;;;;;;3.67;1.27;;;;;;;;;;5091737;28;20192;-70
2023/09/24 12:37:14;;;;;;;4.05;1.30;;;;;;;;;;5085340;28;20576;-73
2023/09/24 12:39:40;;;;;;;4.97;1.25;;;;;;;;;;5087176;28;20201;-70
2023/09/24 12:42:05;;;;;;;4.88;1.20;;;;;;;;;;5101398;28;20294;-70
2023/09/24 12:44:30;;;;;;;3.47;1.17;;;;;;;;;;5087369;28;20253;-69
2023/09/24 12:46:56;;;;;;;3.28;1.13;;;;;;;;;;5099158;28;20522;-69
2023/09/24 12:49:21;;;;;;;3.55;1.50;;;;;;;;;;5092953;28;20278;-70
2023/09/24 12:51:47;;;;;;;4.03;1.40;;;;;;;;;;5091488;28;20672;-70
2023/09/24 12:54:12;;;;;;;2.47;1.05;;;;;;;;;;5086506;28;20669;-71
2023/09/24 12:56:37;;;;;;;4.28;1.45;;;;;;;;;;5105347;28;20187;-72
2023/09/24 12:59:03;;;;;;;2.97;1.45;;;;;;;;;;5090562;28;20229;-74
2023/09/24 13:01:28;;;;;;;4.40;1.30;;;;;;;;;;5091333;28;20286;-69
2023/09/24 13:03:54;;;;;;;4.18;1.42;;;;;;;;;;5091639;28;20195;-68
2023/09/24 13:06:23;;;;;;;2.25;1.17;;;;;;;;;;5091095;28;20188;-70
2023/09/24 13:08:49;;;;;;;4.82;1.10;;;;;;;;;;5090659;28;20206;-70
2023/09/24 13:11:19;;;;;;;5.47;1.38;;;;;;;;;;5053146;28;20180;-71
2023/09/24 13:13:44;;;;;;;6.65;1.35;;;;;;;;;;5089006;28;20231;-69
2023/09/24 13:16:10;;;;;;;2.38;0.95;;;;;;;;;;5073001;28;20719;-69
2023/09/24 13:18:35;;;;;;;6.40;2.00;;;;;;;;;;5070054;28;20554;-68
2023/09/24 13:21:01;;;;;;;6.63;1.40;;;;;;;;;;5098835;28;20489;-69
2023/09/24 13:23:26;;;;;;;3.90;1.30;;;;;;;;;;5091761;28;20241;-70
2023/09/24 13:25:52;;;;;;;3.60;1.15;;;;;;;;;;5091967;28;20184;-70
2023/09/24 13:28:17;;;;;;;4.43;1.05;;;;;;;;;;5095886;28;20579;-70
2023/09/24 13:30:43;;;;;;;4.30;1.55;;;;;;;;;;5095255;28;20180;-69
2023/09/24 13:33:09;;;;;;;5.53;1.27;;;;;;;;;;5090365;28;20184;-73
2023/09/24 13:35:39;;;;;;;2.30;1.40;;;;;;;;;;5071827;28;20184;-71
2023/09/24 13:38:04;;;;;;;4.85;1.15;;;;;;;;;;5109049;28;20575;-71
2023/09/24 13:40:31;;;;;;;3.55;1.50;;;;;;;;;;5108738;28;20274;-70
2023/09/24 13:42:59;;;;;;;3.92;1.30;;;;;;;;;;5091177;28;20526;-70
2023/09/24 13:45:24;;;;;;;3.72;1.30;;;;;;;;;;5094111;28;20211;-70
2023/09/24 13:47:49;;;;;;;5.20;1.60;;;;;;;;;;5075026;28;20215;-70
2023/09/24 13:50:15;;;;;;;3.85;1.25;;;;;;;;;;5089845;28;20176;-70
2023/09/24 13:52:40;;;;;;;4.28;1.45;;;;;;;;;;5088489;28;20286;-70
2023/09/24 13:55:06;;;;;;;3.67;1.30;;;;;;;;;;5089108;28;20643;-69
2023/09/24 13:57:31;;;;;;;4.85;1.33;;;;;;;;;;5089887;28;20260;-69
2023/09/24 13:59:57;;;;;;;3.65;1.25;;;;;;;;;;5089578;28;20224;-69
2023/09/24 14:02:22;;;;;;;3.58;1.30;;;;;;;;;;5100543;28;20724;-69
2023/09/24 14:04:47;;;;;;;4.32;1.40;;;;;;;;;;5071497;28;20249;-70
2023/09/24 14:07:13;;;;;;;4.90;1.35;;;;;;;;;;5086686;28;20176;-71
2023/09/24 14:12:24;;;;;;;4.53;1.30;;;;;;;;;;5069389;28;20683;-69
2023/09/24 14:14:52;;;;;;;2.30;0.98;;;;;;;;;;5096218;28;20229;-71
2023/09/24 14:17:21;;;;;;;4.97;1.60;;;;;;;;;;5089539;28;20283;-70
2023/09/24 14:19:47;;;;;;;3.60;1.33;;;;;;;;;;5071902;28;20185;-70
2023/09/24 14:22:13;;;;;;;3.78;1.48;;;;;;;;;;5071856;28;20681;-70
2023/09/24 14:24:39;;;;;;;5.68;1.40;;;;;;;;;;5089169;28;20615;-68
2023/09/24 14:27:05;;;;;;;2.25;1.20;;;;;;;;;;5083577;28;20195;-70
2023/09/24 14:29:31;;;;;;;2.45;1.35;;;;;;;;;;5083703;28;20245;-70
2023/09/24 14:31:56;;;;;;;1.98;1.20;;;;;;;;;;5069308;28;20184;-71
2023/09/24 14:34:22;;;;;;;3.30;1.35;;;;;;;;;;5098075;28;20206;-70